^^
Station Historical Data
 
Daily Summary for March 05, 2015 Units:  English    Metric   Both
« Previous Day
Next Day »
Daily Weekly Monthly Yearly Custom
  Current: High: Low: Average:
Temperature: 8.6 °F 17.8 °F 7.0 °F 12.7 °F
Dew Point: 1.7 °F 3.7 °F -2.1 °F 1.2 °F
Humidity: 73% 73% 45% 60%
Wind Speed: 1.0mph 12.0mph 1.0mph 3.4mph
Wind Gust: 4.0mph 16.0mph - -
WindWSW - - WNW
Pressure: 30.61 in 30.61 in 30.40 in -
Precipitation: 0.00 in      
Historical Graphs
 
 
Tabular Data for March 05, 2015
Time Temperature Dew Point Pressure Wind Wind Speed Wind Gust Humidity Rainfall Rate (Hourly)
00:19 11.5 °F 1.7 °F 30.40 in NW 2.0 mph 3.0 mph 64% 0.00 in
00:29 11.1 °F 1.6 °F 30.41 in NW 3.0 mph 3.0 mph 65% 0.00 in
00:39 10.9 °F 1.8 °F 30.41 in NW 1.0 mph 2.0 mph 66% 0.00 in
00:49 10.8 °F 1.7 °F 30.41 in WNW 2.0 mph 3.0 mph 66% 0.00 in
00:59 10.6 °F 1.5 °F 30.42 in WNW 2.0 mph 2.0 mph 66% 0.00 in
01:09 10.4 °F 1.3 °F 30.41 in NW 2.0 mph 2.0 mph 66% 0.00 in
01:19 10.4 °F 1.3 °F 30.40 in NW 1.0 mph 2.0 mph 66% 0.00 in
01:29 10.0 °F 1.2 °F 30.40 in NNW 2.0 mph 3.0 mph 67% 0.00 in
01:39 10.0 °F 1.2 °F 30.40 in NNW 2.0 mph 3.0 mph 67% 0.00 in
01:49 9.7 °F 1.2 °F 30.41 in NW 3.0 mph 3.0 mph 68% 0.00 in
01:59 9.6 °F 0.5 °F 30.41 in NNW 1.0 mph 2.0 mph 66% 0.00 in
02:09 9.6 °F 0.5 °F 30.41 in North 1.0 mph 1.0 mph 66% 0.00 in
02:19 9.4 °F 0.3 °F 30.41 in NW 1.0 mph 2.0 mph 66% 0.00 in
02:29 9.3 °F 0.5 °F 30.41 in NNW 1.0 mph 1.0 mph 67% 0.00 in
02:39 9.2 °F 0.5 °F 30.40 in North 1.0 mph 3.0 mph 67% 0.00 in
02:49 9.2 °F 0.5 °F 30.40 in NW 3.0 mph 3.0 mph 67% 0.00 in
02:59 9.3 °F 0.9 °F 30.40 in NW 2.0 mph 2.0 mph 68% 0.00 in
03:09 9.3 °F 0.9 °F 30.40 in NNW 2.0 mph 2.0 mph 68% 0.00 in
03:19 9.5 °F 0.7 °F 30.40 in Calm   1.0 mph 67% 0.00 in
03:29 9.6 °F 1.2 °F 30.41 in Calm   1.0 mph 68% 0.00 in
03:39 9.6 °F 1.2 °F 30.41 in Calm   1.0 mph 68% 0.00 in
03:49 9.7 °F 1.2 °F 30.42 in WNW 1.0 mph 2.0 mph 68% 0.00 in
03:59 9.8 °F 1.3 °F 30.41 in WNW 2.0 mph 2.0 mph 68% 0.00 in
04:09 9.8 °F 1.3 °F 30.41 in WNW 2.0 mph 2.0 mph 68% 0.00 in
04:19 9.8 °F 1.0 °F 30.42 in WNW 1.0 mph 1.0 mph 67% 0.00 in
04:29 9.6 °F 0.5 °F 30.43 in NW 1.0 mph 1.0 mph 66% 0.00 in
04:39 9.6 °F 0.5 °F 30.43 in NW 1.0 mph 1.0 mph 66% 0.00 in
04:49 9.4 °F 0.6 °F 30.43 in NW 1.0 mph 2.0 mph 67% 0.00 in
04:59 9.1 °F 0.4 °F 30.44 in NW 2.0 mph 2.0 mph 67% 0.00 in
05:09 9.1 °F 0.4 °F 30.44 in NNW 2.0 mph 2.0 mph 67% 0.00 in
05:19 8.7 °F 0.0 °F 30.45 in NW 1.0 mph 1.0 mph 67% 0.00 in
05:29 8.3 °F -0.1 °F 30.47 in WNW 1.0 mph 1.0 mph 68% 0.00 in
05:39 8.3 °F -0.1 °F 30.47 in WNW 1.0 mph 1.0 mph 68% 0.00 in
05:49 8.1 °F -0.6 °F 30.46 in NW 1.0 mph 1.0 mph 67% 0.00 in
05:59 8.0 °F -0.4 °F 30.47 in NW 1.0 mph 3.0 mph 68% 0.00 in
06:09 8.0 °F -0.4 °F 30.47 in WNW 1.0 mph 2.0 mph 68% 0.00 in
06:19 7.9 °F -0.8 °F 30.46 in WNW 2.0 mph 2.0 mph 67% 0.00 in
06:29 7.8 °F -0.9 °F 30.47 in WNW 2.0 mph 3.0 mph 67% 0.00 in
06:39 7.8 °F -0.9 °F 30.47 in WNW 2.0 mph 2.0 mph 67% 0.00 in
06:49 7.4 °F 0.0 °F 30.47 in WNW 2.0 mph 2.0 mph 71% 0.00 in
06:59 7.0 °F -0.4 °F 30.47 in NW 1.0 mph 1.0 mph 71% 0.00 in
07:09 7.0 °F -0.4 °F 30.47 in NW 1.0 mph 1.0 mph 71% 0.00 in
07:19 7.3 °F -1.1 °F 30.48 in NW 1.0 mph 1.0 mph 68% 0.00 in
07:29 7.9 °F -2.1 °F 30.49 in NNW 1.0 mph 2.0 mph 63% 0.00 in
07:39 7.9 °F -2.1 °F 30.49 in North 1.0 mph 1.0 mph 63% 0.00 in
07:49 8.6 °F -1.1 °F 30.49 in NW 1.0 mph 3.0 mph 64% 0.00 in
07:59 9.5 °F -0.6 °F 30.51 in WNW 2.0 mph 3.0 mph 63% 0.00 in
08:19 11.3 °F 0.1 °F 30.51 in NW 1.0 mph 4.0 mph 60% 0.00 in
08:29 11.9 °F -0.1 °F 30.52 in WNW 3.0 mph 3.0 mph 58% 0.00 in
08:39 11.9 °F -0.1 °F 30.52 in WNW 3.0 mph 3.0 mph 58% 0.00 in
08:49 12.7 °F -0.4 °F 30.52 in NW 2.0 mph 7.0 mph 55% 0.00 in
08:59 13.5 °F -0.1 °F 30.52 in WNW 5.0 mph 6.0 mph 54% 0.00 in
09:09 13.5 °F -0.1 °F 30.52 in WNW 5.0 mph 6.0 mph 54% 0.00 in
09:19 13.9 °F -0.9 °F 30.52 in NW 6.0 mph 6.0 mph 51% 0.00 in
09:29 14.4 °F -1.3 °F 30.52 in NNW 2.0 mph 4.0 mph 49% 0.00 in
09:39 14.9 °F -0.8 °F 30.52 in WNW 3.0 mph 4.0 mph 49% 0.00 in
09:49 15.9 °F -0.4 °F 30.52 in North 2.0 mph 3.0 mph 48% 0.00 in
09:59 17.0 °F 0.2 °F 30.52 in North 2.0 mph 3.0 mph 47% 0.00 in
10:09 17.0 °F 0.2 °F 30.52 in NNW 2.0 mph 2.0 mph 47% 0.00 in
10:19 17.8 °F 0.5 °F 30.52 in NNW 6.0 mph 6.0 mph 46% 0.00 in
10:29 17.7 °F -0.1 °F 30.53 in WNW 3.0 mph 8.0 mph 45% 0.00 in
10:39 17.7 °F -0.1 °F 30.53 in WNW 3.0 mph 7.0 mph 45% 0.00 in
10:49 17.4 °F 0.1 °F 30.54 in WNW 7.0 mph 8.0 mph 46% 0.00 in
10:59 17.8 °F 0.5 °F 30.54 in WNW 5.0 mph 7.0 mph 46% 0.00 in
11:09 17.8 °F 0.5 °F 30.54 in NW 5.0 mph 7.0 mph 46% 0.00 in
11:19 17.5 °F 0.7 °F 30.54 in NNW 7.0 mph 7.0 mph 47% 0.00 in
11:29 17.3 °F 0.9 °F 30.55 in NW 7.0 mph 7.0 mph 48% 0.00 in
11:39 17.3 °F 0.9 °F 30.55 in WNW 7.0 mph 7.0 mph 48% 0.00 in
11:49 17.3 °F 0.5 °F 30.55 in NW 7.0 mph 7.0 mph 47% 0.00 in
11:59 17.3 °F 0.9 °F 30.55 in NW 5.0 mph 5.0 mph 48% 0.00 in
12:09 17.3 °F 0.9 °F 30.55 in NW 5.0 mph 5.0 mph 48% 0.00 in
12:19 17.3 °F 0.9 °F 30.55 in WNW 3.0 mph 6.0 mph 48% 0.00 in
12:29 17.1 °F 1.2 °F 30.55 in West 6.0 mph 7.0 mph 49% 0.00 in
12:39 17.1 °F 1.2 °F 30.55 in West 6.0 mph 7.0 mph 49% 0.00 in
12:49 17.2 °F 1.3 °F 30.54 in West 7.0 mph 8.0 mph 49% 0.00 in
12:59 17.1 °F 1.6 °F 30.54 in WNW 8.0 mph 11.0 mph 50% 0.00 in
13:09 17.1 °F 1.6 °F 30.54 in WNW 8.0 mph 8.0 mph 50% 0.00 in
13:19 17.1 °F 2.1 °F 30.54 in NW 7.0 mph 8.0 mph 51% 0.00 in
13:29 16.7 °F 0.8 °F 30.55 in West 7.0 mph 12.0 mph 49% 0.00 in
13:39 17.3 °F 2.2 °F 30.54 in WSW 12.0 mph 12.0 mph 51% 0.00 in
13:49 17.2 °F 1.3 °F 30.54 in NW 7.0 mph 7.0 mph 49% 0.00 in
13:59 17.3 °F 2.7 °F 30.54 in WNW 2.0 mph 8.0 mph 52% 0.00 in
14:09 17.3 °F 2.7 °F 30.54 in WNW 2.0 mph 6.0 mph 52% 0.00 in
14:19 17.6 °F 2.5 °F 30.54 in NW 3.0 mph 9.0 mph 51% 0.00 in
14:29 17.5 °F 3.3 °F 30.55 in West 9.0 mph 9.0 mph 53% 0.00 in
14:39 17.5 °F 3.3 °F 30.55 in West 9.0 mph 9.0 mph 53% 0.00 in
14:49 17.0 °F 2.4 °F 30.55 in WNW 5.0 mph 6.0 mph 52% 0.00 in
14:59 17.3 °F 3.1 °F 30.55 in West 5.0 mph 7.0 mph 53% 0.00 in
15:09 17.3 °F 3.1 °F 30.55 in WSW 5.0 mph 5.0 mph 53% 0.00 in
15:19 17.1 °F 3.7 °F 30.56 in NW 5.0 mph 9.0 mph 55% 0.00 in
15:29 17.3 °F 3.1 °F 30.55 in West 8.0 mph 8.0 mph 53% 0.00 in
15:39 17.3 °F 3.1 °F 30.55 in West 8.0 mph 8.0 mph 53% 0.00 in
15:49 16.8 °F 3.4 °F 30.56 in WNW 5.0 mph 9.0 mph 55% 0.00 in
15:59 17.0 °F 3.2 °F 30.56 in NW 9.0 mph 9.0 mph 54% 0.00 in
16:09 17.0 °F 3.2 °F 30.56 in NW 9.0 mph 9.0 mph 54% 0.00 in
16:19 16.6 °F 2.8 °F 30.56 in NW 7.0 mph 7.0 mph 54% 0.00 in
16:29 15.8 °F 1.7 °F 30.56 in NW 5.0 mph 5.0 mph 53% 0.00 in
16:39 15.8 °F 1.7 °F 30.56 in WNW 5.0 mph 5.0 mph 53% 0.00 in
16:49 15.3 °F 1.6 °F 30.57 in West 5.0 mph 8.0 mph 54% 0.00 in
16:59 14.7 °F 1.8 °F 30.57 in West 8.0 mph 8.0 mph 56% 0.00 in
17:09 14.7 °F 1.8 °F 30.57 in West 8.0 mph 8.0 mph 56% 0.00 in
17:19 14.5 °F 2.4 °F 30.57 in WSW 3.0 mph 5.0 mph 58% 0.00 in
17:29 14.0 °F 2.3 °F 30.57 in West 5.0 mph 6.0 mph 59% 0.00 in
17:39 14.0 °F 2.3 °F 30.57 in WNW 5.0 mph 5.0 mph 59% 0.00 in
17:49 13.7 °F 2.7 °F 30.58 in WNW 3.0 mph 6.0 mph 61% 0.00 in
17:59 13.4 °F 2.8 °F 30.59 in WNW 3.0 mph 4.0 mph 62% 0.00 in
18:09 13.4 °F 2.8 °F 30.59 in WNW 3.0 mph 3.0 mph 62% 0.00 in
18:19 13.0 °F 2.8 °F 30.59 in West 3.0 mph 5.0 mph 63% 0.00 in
18:29 12.7 °F 2.8 °F 30.60 in West 3.0 mph 3.0 mph 64% 0.00 in
18:39 12.7 °F 2.8 °F 30.60 in West 3.0 mph 3.0 mph 64% 0.00 in
18:49 12.3 °F 2.8 °F 30.60 in WSW 1.0 mph 2.0 mph 65% 0.00 in
18:59 12.0 °F 2.5 °F 30.61 in West 2.0 mph 3.0 mph 65% 0.00 in
19:09 12.0 °F 2.5 °F 30.61 in West 2.0 mph 2.0 mph 65% 0.00 in
19:19 11.6 °F 2.4 °F 30.61 in WSW 2.0 mph 3.0 mph 66% 0.00 in
19:29 11.3 °F 2.5 °F 30.61 in WSW 1.0 mph 3.0 mph 67% 0.00 in
19:39 11.2 °F 2.4 °F 30.61 in WSW 2.0 mph 2.0 mph 67% 0.00 in
19:49 10.7 °F 2.2 °F 30.60 in WSW 1.0 mph 2.0 mph 68% 0.00 in
19:59 10.5 °F 2.3 °F 30.60 in WSW 2.0 mph 16.0 mph 69% 0.00 in
20:09 10.4 °F 2.2 °F 30.60 in WSW 1.0 mph 5.0 mph 69% 0.00 in
20:19 10.2 °F 2.4 °F 30.60 in SW 1.0 mph 4.0 mph 70% 0.00 in
20:29 10.0 °F 2.2 °F 30.60 in WSW 2.0 mph 5.0 mph 70% 0.00 in
20:39 9.8 °F 2.3 °F 30.60 in WSW 1.0 mph 4.0 mph 71% 0.00 in
20:49 9.7 °F 2.2 °F 30.61 in SW 2.0 mph 5.0 mph 71% 0.00 in
20:59 9.6 °F 2.4 °F 30.61 in WSW 2.0 mph 5.0 mph 72% 0.00 in
21:09 9.5 °F 2.3 °F 30.60 in WSW 2.0 mph 6.0 mph 72% 0.00 in
21:19 9.4 °F 2.2 °F 30.61 in WSW 3.0 mph 6.0 mph 72% 0.00 in
21:29 9.2 °F 2.3 °F 30.61 in WSW 2.0 mph 6.0 mph 73% 0.00 in
21:39 8.8 °F 1.6 °F 30.61 in WSW 2.0 mph 6.0 mph 72% 0.00 in
21:49 8.6 °F 1.7 °F 30.61 in WSW 1.0 mph 4.0 mph 73% 0.00 in
jolietwx - Weather
Compliments of Weather Underground